Martinsville, VA

8:15 PM EDT on September 20, 2014 (GMT -0400)
Piedmont Triad International | Change Station
CLOSE
Current Station
Airport
Location: Greensboro,
Elevation: 886 ft
Nearby Weather Stations

Elev 886 ft 36.10 °N, 79.94 °W | Updated 21 minutes ago

Clear
Clear
70 °F
Feels Like 70 °F
N
6
Wind Variable Wind from ENE

Today
High -- | Low -- °F
--% Chance of Precip.
Yesterday
High -- | Low -- °F
Precip. -- in
7:05 AM 7:19 PM
Waning Crescent, 9% visible
Pressure 30.03 in
Visibility 10.0 miles
Clouds Few 5000 ft
Mostly Cloudy 25000 ft
Dew Point 59 °F
Humidity 68%
Rainfall 0.00 in
Snow Depth Not available.
UV 0 out of 12
Pollen 6.90 out of 12
Air Quality Not available.
Flu Activity Not available.
METAR KGSO 202354Z 06005KT 10SM FEW050 BKN250 21/15 A3005 RMK AO2 SLP169 T02110150 10272 20211 56006

More Conditions Fewer Conditions

Pressure 30.03 in
Visibility 10.0 miles
Clouds Few 5000 ft
Mostly Cloudy 25000 ft
Dew Point 59 °F
Humidity 68%
Rainfall 0.00 in
Snow Depth Not available.
UV 0 out of 12
Pollen 6.90 out of 12
Air Quality Not available.
Flu Activity Not available.
METAR KGSO 202354Z 06005KT 10SM FEW050 BKN250 21/15 A3005 RMK AO2 SLP169 T02110150 10272 20211 56006

More Conditions Fewer Conditions

10-Day Weather Forecast

Almanac

Astronomy

Sep. 20, 2014 Rise Set
Actual Time 7:05 AM EDT 7:19 PM EDT
Civil Twilight 6:39 AM EDT 7:45 PM EDT
Nautical Twilight 6:09 AM EDT 8:15 PM EDT
Astronomical Twilight 5:38 AM EDT 8:46 PM EDT
Moon 3:47 AM EDT (9/20) 5:18 PM EDT (9/20)
Length of Visible Light 13h 05m
Length of Day
12h 13m
Tomorrow will be 2m 19s shorter.
Waning Crescent, 9% of the Moon is Illuminated
Today
Waning Crescent
Sep 24
New
Oct 1
First Quarter
Oct 8
Full
Oct 15
Last Quarter

Today's Extremes

State Highs State Lows

Community

WunderPhotos

Upload Photos

1,754,997 photos uploaded!

WunderBlogs® & News

Nearby

Snow Depth

Station Depth Elevation
No new snow has been reported.

Earthquake Activity

City Distance Mag. Time & Date
No recent earthquake activity has been reported nearby.
Minimum magnitude displayed is 2.5.

Coastal Water Temperatures

Place Temperature
No Stations Reporting

Nearby Weather Stations